Terminal Aerodrome Forecast
Issued by NWS

Current Version | Previous Version | Graphics & Text | Print | Product List | Glossary On
Versions: 1 2 3 4 5 6 7 8 9 10 11 12 13 14 15 16 17 18 19 20 21 22 23 24 25 26
000
FTUS41 KRLX 151300 AAB
TAFCKB
TAF AMD
KCKB 151359Z 1514/1612 00000KT 1/4SM FG VV002
      TEMPO 1514/1515 3SM BR BKN001
     FM151500 VRB03KT P6SM FEW090
     FM160200 00000KT P6SM BKN110
     FM161000 VRB03KT P6SM BKN030=

USA.gov is the U.S. government's official web portal to all federal, state and local government web resources and services.